Weather at Angel Albino Corzo International Airport

Public forecast

Using degrees Celsius for public forecast. Weather courtesy of forecast.io.

Current aviation weather report (METAR) for Angel Albino Corzo International Airport

Retrieved 2021/01/27 17:47 UTC (52 minutes ago):

MMTG 271747Z 17004KT 8SM SKC 29/16 A2997 RMK SLP115 57013 924

Aviation forecast (TAF) for Angel Albino Corzo International Airport

Retrieved 2021/01/27 18:36 UTC (3 minutes ago):

TAF TAF MMTG 271735Z 2718/2818 33010KT P6SM SCT030 FM280300 30005KT P6SM SCT020 BKN250 PROB40 2812/2816 5SM RA BKN020 FM281600 33015KT P6SM SCT020 BKN080